Atlee, Canada
Current Conditions -  °F | °C
As of 9:00 PM on Thursday 20 Nov 2014 (Local Time) from CYXH Reporting Station
Few Clouds Few Clouds  
Wind Chill: 30°   Ceiling: Unl
Heat Index: 39°   Visibility: 9mi
Dew Point: 32°   Wind: 17mph
Humidity: 75%   Direction: 200°SSW
Pressure: 29.61"   Gusts: 23mph
Location:  50.85°N, 110.95°W
Report Text: CYXH 210400Z AUTO 20015G20KT 9SM FEW200 04/M00 A2961 RMK SLP058
Loading
Personal Weather Stations






























Interactive Weather Map New forecast layout! Learn more

10-Day Weather Forecast

Advertisements
Track Severe Weather on mobile